Time;durP1;ratioP1;P1;durP2;ratioP2;P2;SDS_P1;SDS_P2;PMS_P1;PMS_P2;Temp;Humidity;BMP_temperature;BMP_pressure;BME280_temperature;BME280_humidity;BME280_pressure;Samples;Min_cycle;Max_cycle;Signal;HPM_P1;HPM_P2
2024/01/16 00:01:44;;;;;;;15.87;3.33;;;;;;;;;;5049063;28;20299;-64
2024/01/16 00:04:10;;;;;;;8.77;1.83;;;;;;;;;;5051279;28;20358;-63
2024/01/16 00:06:40;;;;;;;8.20;1.53;;;;;;;;;;5051240;28;20275;-63
2024/01/16 00:09:06;;;;;;;9.97;1.63;;;;;;;;;;5051003;28;20318;-63
2024/01/16 00:11:32;;;;;;;25.00;3.00;;;;;;;;;;5051004;28;20681;-63
2024/01/16 00:13:58;;;;;;;15.80;2.63;;;;;;;;;;5050754;28;20804;-64
2024/01/16 00:16:24;;;;;;;16.27;2.63;;;;;;;;;;5050568;28;20284;-63
2024/01/16 00:18:50;;;;;;;14.20;1.97;;;;;;;;;;5051173;28;21121;-64
2024/01/16 00:21:16;;;;;;;13.37;1.97;;;;;;;;;;5050889;28;20053;-63
2024/01/16 00:23:42;;;;;;;11.43;1.43;;;;;;;;;;5050979;28;20194;-63
2024/01/16 00:26:08;;;;;;;18.40;1.73;;;;;;;;;;5050348;28;20091;-64
2024/01/16 00:28:34;;;;;;;4.90;2.23;;;;;;;;;;5049833;28;20049;-64
2024/01/16 00:31:00;;;;;;;5.93;1.43;;;;;;;;;;5049358;28;20946;-64
2024/01/16 00:33:27;;;;;;;12.47;2.00;;;;;;;;;;5050624;28;20099;-63
2024/01/16 00:35:53;;;;;;;8.73;1.20;;;;;;;;;;5050910;28;20282;-64
2024/01/16 00:38:19;;;;;;;6.03;1.53;;;;;;;;;;5050049;28;20275;-63
2024/01/16 00:40:46;;;;;;;7.47;1.57;;;;;;;;;;5050426;28;20495;-64
2024/01/16 00:43:12;;;;;;;13.43;1.50;;;;;;;;;;5050610;28;20053;-63
2024/01/16 00:45:40;;;;;;;7.00;1.40;;;;;;;;;;5049801;28;20898;-64
2024/01/16 00:48:06;;;;;;;7.90;1.40;;;;;;;;;;5050129;28;20673;-64
2024/01/16 00:50:33;;;;;;;13.70;1.60;;;;;;;;;;5050445;28;20291;-63
2024/01/16 00:52:59;;;;;;;11.23;1.30;;;;;;;;;;5050261;28;20311;-63
2024/01/16 00:55:25;;;;;;;7.60;1.67;;;;;;;;;;5048201;28;20357;-64
2024/01/16 00:57:52;;;;;;;14.90;3.20;;;;;;;;;;5049510;28;20128;-64
2024/01/16 01:00:18;;;;;;;11.53;2.50;;;;;;;;;;5049682;28;20075;-64
2024/01/16 01:02:44;;;;;;;10.43;1.40;;;;;;;;;;5049228;28;20283;-64
2024/01/16 01:05:10;;;;;;;12.50;1.90;;;;;;;;;;5049034;28;20374;-64
2024/01/16 01:07:36;;;;;;;11.23;1.70;;;;;;;;;;5049324;28;20300;-63
2024/01/16 01:10:03;;;;;;;10.43;1.23;;;;;;;;;;5049490;28;20310;-63
2024/01/16 01:12:29;;;;;;;9.20;1.20;;;;;;;;;;5049715;28;20642;-64
2024/01/16 01:14:55;;;;;;;8.30;1.70;;;;;;;;;;5049152;28;20326;-64
2024/01/16 01:17:21;;;;;;;12.00;1.77;;;;;;;;;;5048748;28;20041;-64
2024/01/16 01:19:47;;;;;;;12.53;2.13;;;;;;;;;;5048904;28;20088;-64
2024/01/16 01:22:13;;;;;;;8.33;1.50;;;;;;;;;;5049222;28;20045;-63
2024/01/16 01:24:39;;;;;;;13.80;2.10;;;;;;;;;;5048188;28;20049;-63
2024/01/16 01:27:06;;;;;;;11.43;2.53;;;;;;;;;;5047301;28;20523;-64
2024/01/16 01:29:32;;;;;;;14.70;2.37;;;;;;;;;;5045384;28;20103;-64
2024/01/16 01:31:58;;;;;;;10.60;1.67;;;;;;;;;;5043398;28;20296;-64
2024/01/16 01:34:24;;;;;;;7.40;1.07;;;;;;;;;;5046989;28;20681;-63
2024/01/16 01:36:50;;;;;;;5.70;1.50;;;;;;;;;;5048222;28;20307;-64
2024/01/16 01:39:16;;;;;;;10.90;1.40;;;;;;;;;;5048827;28;20781;-64
2024/01/16 01:41:42;;;;;;;7.40;1.47;;;;;;;;;;5047761;28;20041;-63
2024/01/16 01:44:15;;;;;;;8.83;1.03;;;;;;;;;;5047585;28;20064;-64
2024/01/16 01:46:41;;;;;;;10.63;1.63;;;;;;;;;;5046817;28;20650;-64
2024/01/16 01:49:07;;;;;;;10.73;1.63;;;;;;;;;;5028717;28;20050;-64
2024/01/16 01:51:34;;;;;;;7.90;1.63;;;;;;;;;;5039029;28;20875;-63
2024/01/16 01:54:01;;;;;;;15.73;2.50;;;;;;;;;;5048451;28;20296;-64
2024/01/16 01:56:27;;;;;;;7.60;1.20;;;;;;;;;;5048814;28;20299;-64
2024/01/16 01:58:56;;;;;;;7.73;1.40;;;;;;;;;;5042455;28;20287;-63
2024/01/16 02:01:23;;;;;;;5.07;1.27;;;;;;;;;;5048485;28;20425;-64
2024/01/16 02:03:50;;;;;;;6.73;1.10;;;;;;;;;;5048564;28;20307;-64
2024/01/16 02:06:16;;;;;;;9.03;1.63;;;;;;;;;;5048247;28;20906;-63
2024/01/16 02:08:42;;;;;;;7.53;1.20;;;;;;;;;;5048531;28;20317;-64
2024/01/16 02:11:09;;;;;;;8.57;1.13;;;;;;;;;;5043307;28;20284;-64
2024/01/16 02:13:36;;;;;;;11.87;1.43;;;;;;;;;;5047716;28;20358;-64
2024/01/16 02:16:03;;;;;;;8.47;1.50;;;;;;;;;;5057278;28;20275;-64
2024/01/16 02:18:29;;;;;;;11.47;1.50;;;;;;;;;;5052850;28;20298;-64
2024/01/16 02:21:01;;;;;;;7.57;1.57;;;;;;;;;;5048055;28;20284;-64
2024/01/16 02:23:27;;;;;;;7.47;1.57;;;;;;;;;;5048518;28;20283;-64
2024/01/16 02:25:53;;;;;;;12.00;1.40;;;;;;;;;;5047126;28;20789;-64
2024/01/16 02:28:20;;;;;;;14.60;1.60;;;;;;;;;;5047791;28;20311;-64
2024/01/16 02:30:46;;;;;;;7.93;1.60;;;;;;;;;;5048468;28;20650;-64
2024/01/16 02:33:12;;;;;;;16.43;1.60;;;;;;;;;;5058226;28;20836;-64
2024/01/16 02:35:39;;;;;;;12.70;1.77;;;;;;;;;;5068287;28;20321;-64
2024/01/16 02:38:05;;;;;;;14.27;1.73;;;;;;;;;;5068425;28;20294;-64
2024/01/16 02:40:31;;;;;;;10.30;1.50;;;;;;;;;;5068271;28;20758;-64
2024/01/16 02:42:57;;;;;;;11.37;1.67;;;;;;;;;;5067968;28;20275;-64
2024/01/16 02:45:23;;;;;;;12.10;2.33;;;;;;;;;;5068421;28;20434;-64
2024/01/16 02:47:49;;;;;;;20.07;2.20;;;;;;;;;;5050960;28;20311;-64
2024/01/16 02:50:15;;;;;;;6.87;1.37;;;;;;;;;;5048358;28;20284;-64
2024/01/16 02:52:41;;;;;;;12.33;2.17;;;;;;;;;;5050354;28;20979;-64
2024/01/16 02:55:07;;;;;;;7.83;1.53;;;;;;;;;;5051909;28;20411;-64
2024/01/16 02:57:33;;;;;;;10.37;1.40;;;;;;;;;;5051591;28;20059;-64
2024/01/16 02:59:59;;;;;;;8.13;1.53;;;;;;;;;;5052265;28;20283;-64
2024/01/16 03:02:25;;;;;;;7.73;2.87;;;;;;;;;;5051583;28;20052;-64
2024/01/16 03:04:51;;;;;;;7.90;1.63;;;;;;;;;;5051522;28;20284;-64
2024/01/16 03:07:17;;;;;;;16.10;2.40;;;;;;;;;;5052466;28;20307;-64
2024/01/16 03:09:43;;;;;;;14.90;1.70;;;;;;;;;;5051525;28;20645;-64
2024/01/16 03:12:09;;;;;;;11.77;1.60;;;;;;;;;;5051601;28;20693;-64
2024/01/16 03:14:36;;;;;;;12.30;1.83;;;;;;;;;;5051777;28;20283;-64
2024/01/16 03:17:03;;;;;;;16.13;1.80;;;;;;;;;;5051722;28;20425;-64
2024/01/16 03:19:29;;;;;;;6.43;1.73;;;;;;;;;;5051660;28;20291;-64
2024/01/16 03:21:55;;;;;;;13.57;2.50;;;;;;;;;;5051441;28;20276;-64
2024/01/16 03:24:21;;;;;;;15.23;2.87;;;;;;;;;;5051701;28;20379;-64
2024/01/16 03:26:48;;;;;;;11.50;2.00;;;;;;;;;;5051468;28;20288;-64
2024/01/16 03:29:14;;;;;;;8.03;1.20;;;;;;;;;;5051286;28;20308;-64
2024/01/16 03:31:40;;;;;;;16.50;1.93;;;;;;;;;;5051187;28;20275;-64
2024/01/16 03:34:08;;;;;;;12.83;1.63;;;;;;;;;;5051274;28;20044;-64
2024/01/16 03:36:34;;;;;;;10.37;1.80;;;;;;;;;;5050703;28;20071;-64
2024/01/16 03:39:00;;;;;;;13.53;1.30;;;;;;;;;;5050800;28;20279;-63
2024/01/16 03:41:26;;;;;;;11.03;2.23;;;;;;;;;;5051772;28;20286;-64
2024/01/16 03:43:56;;;;;;;9.63;1.63;;;;;;;;;;5049458;28;20067;-64
2024/01/16 03:46:22;;;;;;;8.67;1.40;;;;;;;;;;5049841;28;20045;-64
2024/01/16 03:48:48;;;;;;;15.67;1.50;;;;;;;;;;5048797;28;20321;-64
2024/01/16 03:51:19;;;;;;;11.43;1.77;;;;;;;;;;5045838;28;20041;-64
2024/01/16 03:53:45;;;;;;;5.00;1.20;;;;;;;;;;5039189;28;20295;-63
2024/01/16 03:56:12;;;;;;;10.60;1.70;;;;;;;;;;5049655;28;20331;-64
2024/01/16 03:58:38;;;;;;;14.70;3.17;;;;;;;;;;5053259;28;20279;-64
2024/01/16 04:01:04;;;;;;;10.50;1.77;;;;;;;;;;5048360;28;20310;-64
2024/01/16 04:03:30;;;;;;;16.27;2.43;;;;;;;;;;5049026;28;20292;-64
2024/01/16 04:05:56;;;;;;;8.03;1.23;;;;;;;;;;5049857;28;20284;-64
2024/01/16 04:08:22;;;;;;;6.57;2.73;;;;;;;;;;5050734;28;20128;-64
2024/01/16 04:10:48;;;;;;;9.03;1.43;;;;;;;;;;5050797;28;20051;-64
2024/01/16 04:13:14;;;;;;;8.30;1.40;;;;;;;;;;5051037;28;20504;-64
2024/01/16 04:15:40;;;;;;;10.10;2.00;;;;;;;;;;5051252;28;20068;-64
2024/01/16 04:18:06;;;;;;;13.03;1.70;;;;;;;;;;5049773;28;20344;-64
2024/01/16 04:20:32;;;;;;;9.60;1.70;;;;;;;;;;5050506;28;20693;-64
2024/01/16 04:22:58;;;;;;;13.70;1.67;;;;;;;;;;5050483;28;20370;-64
2024/01/16 04:25:24;;;;;;;9.87;2.00;;;;;;;;;;5049772;28;20291;-64
2024/01/16 04:27:50;;;;;;;14.63;1.60;;;;;;;;;;5050539;28;20807;-64
2024/01/16 04:30:16;;;;;;;9.07;1.90;;;;;;;;;;5050765;28;20287;-64
2024/01/16 04:32:42;;;;;;;10.03;1.80;;;;;;;;;;5064648;28;20366;-64
2024/01/16 04:35:09;;;;;;;7.40;1.37;;;;;;;;;;5069547;28;20314;-64
2024/01/16 04:37:35;;;;;;;11.10;2.20;;;;;;;;;;5070378;28;20286;-64
2024/01/16 04:40:01;;;;;;;5.60;1.67;;;;;;;;;;5070182;28;20846;-64
2024/01/16 04:42:27;;;;;;;13.70;2.17;;;;;;;;;;5069821;28;20283;-64
2024/01/16 04:44:54;;;;;;;9.23;1.50;;;;;;;;;;5069888;28;20095;-64
2024/01/16 04:47:20;;;;;;;13.03;1.70;;;;;;;;;;5069888;28;20665;-64
2024/01/16 04:49:46;;;;;;;8.97;1.73;;;;;;;;;;5068817;28;20314;-63
2024/01/16 04:52:12;;;;;;;12.10;1.80;;;;;;;;;;5070063;28;20301;-64
2024/01/16 04:54:38;;;;;;;13.13;2.10;;;;;;;;;;5068484;28;20048;-64
2024/01/16 04:57:04;;;;;;;13.43;1.60;;;;;;;;;;5056902;28;20290;-64
2024/01/16 04:59:30;;;;;;;6.97;1.70;;;;;;;;;;5050047;28;20053;-64
2024/01/16 05:01:56;;;;;;;17.90;3.27;;;;;;;;;;5049666;28;20279;-64
2024/01/16 05:04:22;;;;;;;14.97;2.43;;;;;;;;;;5046551;28;20052;-64
2024/01/16 05:06:52;;;;;;;10.77;1.67;;;;;;;;;;5047620;28;20354;-64
2024/01/16 05:09:19;;;;;;;6.83;1.53;;;;;;;;;;5049376;28;20384;-64
2024/01/16 05:11:46;;;;;;;12.27;2.10;;;;;;;;;;5049450;28;20669;-64
2024/01/16 05:14:12;;;;;;;9.30;1.87;;;;;;;;;;5049172;28;20295;-64
2024/01/16 05:16:38;;;;;;;11.43;1.43;;;;;;;;;;5049270;28;20286;-64
2024/01/16 05:19:04;;;;;;;9.63;1.60;;;;;;;;;;5049160;28;20041;-64
2024/01/16 05:21:30;;;;;;;12.30;2.30;;;;;;;;;;5049320;28;20048;-64
2024/01/16 05:23:56;;;;;;;9.10;1.73;;;;;;;;;;5049360;28;20792;-64
2024/01/16 05:26:22;;;;;;;8.93;2.70;;;;;;;;;;5048944;28;20053;-64
2024/01/16 05:28:48;;;;;;;12.83;2.27;;;;;;;;;;5049138;28;20307;-64
2024/01/16 05:31:14;;;;;;;12.10;2.40;;;;;;;;;;5049091;28;20280;-64
2024/01/16 05:33:40;;;;;;;9.63;1.70;;;;;;;;;;5049067;28;20615;-64
2024/01/16 05:36:06;;;;;;;5.00;1.23;;;;;;;;;;5048482;28;20045;-64
2024/01/16 05:38:33;;;;;;;14.07;4.10;;;;;;;;;;5050510;28;20049;-64
2024/01/16 05:40:59;;;;;;;6.70;1.60;;;;;;;;;;5065323;28;20336;-63
2024/01/16 05:43:25;;;;;;;26.50;3.10;;;;;;;;;;5068218;28;20305;-64
2024/01/16 05:45:51;;;;;;;10.33;2.47;;;;;;;;;;5069031;28;20703;-64
2024/01/16 05:48:17;;;;;;;14.40;1.70;;;;;;;;;;5069041;28;20360;-63
2024/01/16 05:50:43;;;;;;;8.00;2.03;;;;;;;;;;5068783;28;20287;-64
2024/01/16 05:53:09;;;;;;;8.90;1.87;;;;;;;;;;5068862;28;20040;-64
2024/01/16 05:55:36;;;;;;;12.03;2.40;;;;;;;;;;5068401;28;20076;-64
2024/01/16 05:58:03;;;;;;;9.53;2.47;;;;;;;;;;5068295;28;20106;-64
2024/01/16 06:00:29;;;;;;;15.47;1.87;;;;;;;;;;5068470;28;20294;-64
2024/01/16 06:02:55;;;;;;;11.10;1.90;;;;;;;;;;5052541;28;20344;-64
2024/01/16 06:05:21;;;;;;;6.50;2.00;;;;;;;;;;5048719;28;20284;-64
2024/01/16 06:07:47;;;;;;;11.57;2.90;;;;;;;;;;5048983;28;20049;-64
2024/01/16 06:10:16;;;;;;;19.30;4.27;;;;;;;;;;5048278;28;20840;-64
2024/01/16 06:12:42;;;;;;;9.03;2.40;;;;;;;;;;5048652;28;20113;-64
2024/01/16 06:15:11;;;;;;;11.43;2.67;;;;;;;;;;5049464;28;20296;-64
2024/01/16 06:17:37;;;;;;;8.57;2.53;;;;;;;;;;5048678;28;20287;-64
2024/01/16 06:20:04;;;;;;;14.17;2.80;;;;;;;;;;5029574;28;20591;-64
2024/01/16 06:22:30;;;;;;;10.67;2.67;;;;;;;;;;5028826;28;20093;-64
2024/01/16 06:24:56;;;;;;;9.03;3.00;;;;;;;;;;5028454;28;20287;-64
2024/01/16 06:27:22;;;;;;;11.43;3.20;;;;;;;;;;5029944;28;20280;-64
2024/01/16 06:29:49;;;;;;;21.43;5.50;;;;;;;;;;5032201;28;20550;-64
2024/01/16 06:32:15;;;;;;;5.67;2.50;;;;;;;;;;5052413;28;20291;-64
2024/01/16 06:34:41;;;;;;;11.30;3.60;;;;;;;;;;5052336;28;20315;-64
2024/01/16 06:37:08;;;;;;;10.57;3.37;;;;;;;;;;5052348;28;20338;-64
2024/01/16 06:39:34;;;;;;;18.20;4.13;;;;;;;;;;5052261;28;20053;-64
2024/01/16 06:42:00;;;;;;;16.77;4.10;;;;;;;;;;5051660;28;20291;-64
2024/01/16 06:44:26;;;;;;;16.10;5.13;;;;;;;;;;5052207;28;20349;-64
2024/01/16 06:46:52;;;;;;;10.13;4.27;;;;;;;;;;5052167;28;20368;-64
2024/01/16 06:49:18;;;;;;;12.60;3.77;;;;;;;;;;5071333;28;20303;-64
2024/01/16 06:51:44;;;;;;;21.90;4.53;;;;;;;;;;5072143;28;20360;-64
2024/01/16 06:54:10;;;;;;;9.27;4.30;;;;;;;;;;5072201;28;20279;-63
2024/01/16 06:56:36;;;;;;;11.77;4.57;;;;;;;;;;5071344;28;20395;-64
2024/01/16 06:59:02;;;;;;;8.03;4.17;;;;;;;;;;5071961;28;20055;-64
2024/01/16 07:01:28;;;;;;;16.83;5.97;;;;;;;;;;5069232;28;20041;-64
2024/01/16 07:03:54;;;;;;;10.63;4.57;;;;;;;;;;5051730;28;20284;-64
2024/01/16 07:06:20;;;;;;;9.30;4.10;;;;;;;;;;5051905;28;20658;-64
2024/01/16 07:08:46;;;;;;;21.23;5.67;;;;;;;;;;5051698;28;20053;-64
2024/01/16 07:11:13;;;;;;;15.20;5.13;;;;;;;;;;5051902;28;20119;-64
2024/01/16 07:13:40;;;;;;;17.43;4.47;;;;;;;;;;5051561;28;20288;-64
2024/01/16 07:16:06;;;;;;;12.03;4.80;;;;;;;;;;5051685;28;20291;-64
2024/01/16 07:18:33;;;;;;;13.37;4.37;;;;;;;;;;5050495;28;20288;-64
2024/01/16 07:20:59;;;;;;;14.40;4.57;;;;;;;;;;5050562;28;20739;-64
2024/01/16 07:23:25;;;;;;;9.97;3.90;;;;;;;;;;5050384;28;20321;-64
2024/01/16 07:25:51;;;;;;;15.20;4.63;;;;;;;;;;5050857;28;20122;-64
2024/01/16 07:28:17;;;;;;;12.87;3.93;;;;;;;;;;5048735;28;20569;-64
2024/01/16 07:30:43;;;;;;;10.93;4.00;;;;;;;;;;5050461;28;20322;-64
2024/01/16 07:33:09;;;;;;;12.93;4.57;;;;;;;;;;5051299;28;20291;-64
2024/01/16 07:35:35;;;;;;;12.60;4.80;;;;;;;;;;5038028;28;20284;-64
2024/01/16 07:38:01;;;;;;;15.10;5.80;;;;;;;;;;5032806;28;20046;-64
2024/01/16 07:40:27;;;;;;;18.23;5.63;;;;;;;;;;5051099;28;20279;-64
2024/01/16 07:42:53;;;;;;;16.57;5.33;;;;;;;;;;5051315;28;20305;-63
2024/01/16 07:45:19;;;;;;;19.07;6.50;;;;;;;;;;5050912;28;20061;-64
2024/01/16 07:47:45;;;;;;;14.80;6.33;;;;;;;;;;5050677;28;20052;-64
2024/01/16 07:50:12;;;;;;;16.93;8.43;;;;;;;;;;5051268;28;20276;-63
2024/01/16 07:52:39;;;;;;;22.23;7.67;;;;;;;;;;5050801;28;20095;-64
2024/01/16 07:55:05;;;;;;;21.37;8.40;;;;;;;;;;5052111;28;20410;-63
2024/01/16 07:57:31;;;;;;;18.07;7.57;;;;;;;;;;5071309;28;20279;-64
2024/01/16 07:59:57;;;;;;;20.83;8.00;;;;;;;;;;5054528;28;20280;-64
2024/01/16 08:02:27;;;;;;;19.57;8.60;;;;;;;;;;5034326;28;20801;-64
2024/01/16 08:04:53;;;;;;;21.83;7.90;;;;;;;;;;5049502;28;20319;-64
2024/01/16 08:07:19;;;;;;;22.80;8.70;;;;;;;;;;5049648;28;20323;-64
2024/01/16 08:09:45;;;;;;;24.73;9.27;;;;;;;;;;5049594;28;20055;-64
2024/01/16 08:12:11;;;;;;;20.50;10.50;;;;;;;;;;5050062;28;20107;-64
2024/01/16 08:14:37;;;;;;;37.63;9.87;;;;;;;;;;5050697;28;20374;-64
2024/01/16 08:17:03;;;;;;;27.53;10.30;;;;;;;;;;5050783;28;20402;-64
2024/01/16 08:19:30;;;;;;;23.87;10.27;;;;;;;;;;5050462;28;20107;-64
2024/01/16 08:21:55;;;;;;;23.37;9.97;;;;;;;;;;5044163;28;20296;-64
2024/01/16 08:24:22;;;;;;;19.50;9.97;;;;;;;;;;5048115;28;20298;-64
2024/01/16 08:26:48;;;;;;;19.47;9.87;;;;;;;;;;5049838;28;20131;-64
2024/01/16 08:29:14;;;;;;;23.50;9.10;;;;;;;;;;5050021;28;20307;-65
2024/01/16 08:31:40;;;;;;;20.03;9.20;;;;;;;;;;5048389;28;20685;-64
2024/01/16 08:34:06;;;;;;;28.30;8.83;;;;;;;;;;5049657;28;20041;-64
2024/01/16 08:36:32;;;;;;;26.70;10.57;;;;;;;;;;5046874;28;20302;-64
2024/01/16 08:38:58;;;;;;;116.97;18.17;;;;;;;;;;5049007;28;20571;-64
2024/01/16 08:41:24;;;;;;;22.17;8.73;;;;;;;;;;5047798;28;20041;-64
2024/01/16 08:43:51;;;;;;;23.27;9.60;;;;;;;;;;5048855;28;20387;-64
2024/01/16 08:46:19;;;;;;;20.73;10.83;;;;;;;;;;5049193;28;20441;-63
2024/01/16 08:48:45;;;;;;;22.87;9.60;;;;;;;;;;5047350;28;20315;-63
2024/01/16 08:51:11;;;;;;;27.63;10.87;;;;;;;;;;5046625;28;20681;-63
2024/01/16 08:53:38;;;;;;;21.13;10.20;;;;;;;;;;5048425;28;20295;-63
2024/01/16 08:56:06;;;;;;;23.87;10.17;;;;;;;;;;5049385;28;20314;-63
2024/01/16 08:58:35;;;;;;;22.53;10.97;;;;;;;;;;5049246;28;20284;-63
2024/01/16 09:01:03;;;;;;;23.87;10.93;;;;;;;;;;5048246;28;20386;-64
2024/01/16 09:03:29;;;;;;;24.40;10.43;;;;;;;;;;5043274;28;20297;-63
2024/01/16 09:05:55;;;;;;;23.23;10.30;;;;;;;;;;5041039;28;20283;-64
2024/01/16 09:08:21;;;;;;;37.80;11.40;;;;;;;;;;5041289;28;20498;-64
2024/01/16 09:10:48;;;;;;;20.13;9.53;;;;;;;;;;5033001;28;20053;-64
2024/01/16 09:13:14;;;;;;;19.10;8.40;;;;;;;;;;5042496;28;20049;-64
2024/01/16 09:15:40;;;;;;;24.57;9.40;;;;;;;;;;5041033;28;20284;-64
2024/01/16 09:18:06;;;;;;;19.07;8.60;;;;;;;;;;5039647;28;20354;-64
2024/01/16 09:20:32;;;;;;;23.50;8.30;;;;;;;;;;5036375;28;20131;-64
2024/01/16 09:22:58;;;;;;;17.90;7.67;;;;;;;;;;5037974;28;20286;-64
2024/01/16 09:25:26;;;;;;;17.10;6.63;;;;;;;;;;5041552;28;20280;-64
2024/01/16 09:27:53;;;;;;;13.80;6.53;;;;;;;;;;5041545;28;20049;-65
2024/01/16 09:30:21;;;;;;;21.80;7.97;;;;;;;;;;5038090;28;20643;-64
2024/01/16 09:32:47;;;;;;;15.20;7.13;;;;;;;;;;5041708;28;20330;-65
2024/01/16 09:35:13;;;;;;;19.47;7.80;;;;;;;;;;5041383;28;20798;-65
2024/01/16 09:37:39;;;;;;;13.50;7.17;;;;;;;;;;5037315;28;20041;-65
2024/01/16 09:40:06;;;;;;;15.90;7.87;;;;;;;;;;5039036;28;20292;-65
2024/01/16 09:42:32;;;;;;;16.30;6.97;;;;;;;;;;5035428;28;20366;-64
2024/01/16 09:45:01;;;;;;;22.97;7.10;;;;;;;;;;5035085;28;20295;-64
2024/01/16 09:47:27;;;;;;;14.03;7.13;;;;;;;;;;5037519;28;20662;-64
2024/01/16 09:49:55;;;;;;;14.40;7.13;;;;;;;;;;5037850;28;20915;-65
2024/01/16 09:52:21;;;;;;;15.93;6.17;;;;;;;;;;5035742;28;20288;-65
2024/01/16 09:54:48;;;;;;;15.17;7.40;;;;;;;;;;5034423;28;20283;-65
2024/01/16 09:57:15;;;;;;;12.30;7.10;;;;;;;;;;5043216;28;20304;-65
2024/01/16 09:59:41;;;;;;;17.63;6.50;;;;;;;;;;5036301;28;20314;-65
2024/01/16 10:02:11;;;;;;;14.23;6.77;;;;;;;;;;5036827;28;20292;-64
2024/01/16 10:04:37;;;;;;;17.30;6.17;;;;;;;;;;5035891;28;20283;-65
2024/01/16 10:07:05;;;;;;;14.50;5.80;;;;;;;;;;5038191;28;20295;-65
2024/01/16 10:09:31;;;;;;;10.37;4.97;;;;;;;;;;5054852;28;20863;-64
2024/01/16 10:11:57;;;;;;;12.23;4.87;;;;;;;;;;5044395;28;20037;-64
2024/01/16 10:14:24;;;;;;;14.43;5.07;;;;;;;;;;5042820;28;20053;-65
2024/01/16 10:17:05;;;;;;;8.60;4.90;;;;;;;;;;5048659;28;20677;-65
2024/01/16 10:19:31;;;;;;;10.20;4.03;;;;;;;;;;5040185;28;20370;-64
2024/01/16 10:22:06;;;;;;;6.97;4.20;;;;;;;;;;5036706;28;20275;-64
2024/01/16 10:24:35;;;;;;;8.13;3.70;;;;;;;;;;5042559;28;20350;-64
2024/01/16 10:27:03;;;;;;;10.60;3.50;;;;;;;;;;5042208;28;20307;-64
2024/01/16 10:29:29;;;;;;;13.83;2.93;;;;;;;;;;5039119;28;20308;-65
2024/01/16 10:31:55;;;;;;;12.77;2.67;;;;;;;;;;5038386;28;20323;-65
2024/01/16 10:34:22;;;;;;;9.90;2.53;;;;;;;;;;5040002;28;20323;-65
2024/01/16 10:36:52;;;;;;;9.40;2.57;;;;;;;;;;5039104;28;20045;-64
2024/01/16 10:39:18;;;;;;;8.60;2.00;;;;;;;;;;5039971;28;20057;-64
2024/01/16 10:41:54;;;;;;;8.73;2.00;;;;;;;;;;5037489;28;20287;-64
2024/01/16 10:44:20;;;;;;;10.63;2.10;;;;;;;;;;5037104;28;20294;-65
2024/01/16 10:46:46;;;;;;;10.03;2.10;;;;;;;;;;5041014;28;20284;-65
2024/01/16 10:49:12;;;;;;;15.37;3.13;;;;;;;;;;5035431;28;20087;-65
2024/01/16 10:51:39;;;;;;;11.27;2.63;;;;;;;;;;5037387;28;20048;-65
2024/01/16 10:54:08;;;;;;;11.30;2.20;;;;;;;;;;5037850;28;20053;-65
2024/01/16 10:56:35;;;;;;;8.50;2.07;;;;;;;;;;5037920;28;20277;-65
2024/01/16 10:59:15;;;;;;;8.40;2.00;;;;;;;;;;5037480;28;20057;-65
2024/01/16 11:01:44;;;;;;;8.80;1.90;;;;;;;;;;5039516;28;20044;-65
2024/01/16 11:04:10;;;;;;;16.67;2.07;;;;;;;;;;5042284;28;20052;-65
2024/01/16 11:06:36;;;;;;;9.23;2.53;;;;;;;;;;5039628;28;20280;-65
2024/01/16 11:09:03;;;;;;;7.23;2.93;;;;;;;;;;5040406;28;20072;-65
2024/01/16 11:11:29;;;;;;;14.33;3.30;;;;;;;;;;5041480;28;20121;-65
2024/01/16 11:13:56;;;;;;;12.50;3.23;;;;;;;;;;5041248;28;20655;-65
2024/01/16 11:16:23;;;;;;;17.43;3.53;;;;;;;;;;5041442;28;20330;-65
2024/01/16 11:18:49;;;;;;;13.17;4.37;;;;;;;;;;5041550;28;20284;-65
2024/01/16 11:21:16;;;;;;;36.27;5.80;;;;;;;;;;5040819;28;20068;-65
2024/01/16 11:23:45;;;;;;;15.97;4.73;;;;;;;;;;5030157;28;20033;-65
2024/01/16 11:26:26;;;;;;;11.87;4.67;;;;;;;;;;5030640;28;20084;-65
2024/01/16 11:28:54;;;;;;;15.57;5.87;;;;;;;;;;5029990;28;20054;-66
2024/01/16 11:31:38;;;;;;;16.33;5.87;;;;;;;;;;5045142;28;20299;-65
2024/01/16 11:34:04;;;;;;;17.43;6.67;;;;;;;;;;5050157;28;20299;-65
2024/01/16 11:36:43;;;;;;;21.57;7.87;;;;;;;;;;5050677;28;20319;-66
2024/01/16 11:39:11;;;;;;;18.73;8.30;;;;;;;;;;5051743;28;20298;-65
2024/01/16 11:41:49;;;;;;;14.90;8.33;;;;;;;;;;5050948;28;20295;-65
2024/01/16 11:44:33;;;;;;;20.67;9.50;;;;;;;;;;5049153;28;20608;-66
2024/01/16 11:47:03;;;;;;;16.20;8.20;;;;;;;;;;5050140;28;20731;-65
2024/01/16 11:49:31;;;;;;;17.70;9.00;;;;;;;;;;5051235;28;20136;-65
2024/01/16 11:51:57;;;;;;;20.43;9.83;;;;;;;;;;5051379;28;20810;-65
2024/01/16 11:54:23;;;;;;;23.57;9.57;;;;;;;;;;5050341;28;20284;-66
2024/01/16 11:56:59;;;;;;;20.60;8.93;;;;;;;;;;5049141;28;20114;-65
2024/01/16 11:59:28;;;;;;;22.83;10.03;;;;;;;;;;5049183;28;20060;-65
2024/01/16 12:01:59;;;;;;;24.93;9.77;;;;;;;;;;5049024;28;20799;-65
2024/01/16 12:04:25;;;;;;;28.10;11.23;;;;;;;;;;5048577;28;20710;-66
2024/01/16 12:07:00;;;;;;;21.83;10.20;;;;;;;;;;5048997;28;20091;-65
2024/01/16 12:09:27;;;;;;;17.77;8.37;;;;;;;;;;5049892;28;20053;-65
2024/01/16 12:12:03;;;;;;;17.87;8.93;;;;;;;;;;5050759;28;20136;-65
2024/01/16 12:14:30;;;;;;;23.03;8.97;;;;;;;;;;5049858;28;20045;-66
2024/01/16 12:17:15;;;;;;;26.67;9.13;;;;;;;;;;5050609;28;20041;-65
2024/01/16 12:19:42;;;;;;;21.50;9.47;;;;;;;;;;5049788;28;20049;-65
2024/01/16 12:22:11;;;;;;;14.47;8.87;;;;;;;;;;5050437;28;20041;-66
2024/01/16 12:24:37;;;;;;;21.60;9.03;;;;;;;;;;5049493;28;20053;-65
2024/01/16 12:27:04;;;;;;;22.93;9.80;;;;;;;;;;5050374;28;20132;-65
2024/01/16 12:29:31;;;;;;;16.30;8.60;;;;;;;;;;5050475;28;20530;-66
2024/01/16 12:32:07;;;;;;;17.67;8.60;;;;;;;;;;5050338;28;20287;-65
2024/01/16 12:34:34;;;;;;;12.27;6.80;;;;;;;;;;5050109;28;20295;-66
2024/01/16 12:37:07;;;;;;;21.47;7.53;;;;;;;;;;5050115;28;20079;-65
2024/01/16 12:39:35;;;;;;;17.90;8.23;;;;;;;;;;5050292;28;20876;-65
2024/01/16 12:42:01;;;;;;;17.17;7.03;;;;;;;;;;5049324;28;20045;-65
2024/01/16 12:44:30;;;;;;;16.47;7.37;;;;;;;;;;5050009;28;20049;-65
2024/01/16 12:46:57;;;;;;;17.50;6.73;;;;;;;;;;5049937;28;20127;-65
2024/01/16 12:49:23;;;;;;;13.20;5.97;;;;;;;;;;5049470;28;20086;-65
2024/01/16 12:51:49;;;;;;;12.53;5.80;;;;;;;;;;5049961;28;20143;-64
2024/01/16 12:54:16;;;;;;;17.50;6.60;;;;;;;;;;5049939;28;20094;-64
2024/01/16 12:56:42;;;;;;;12.00;5.77;;;;;;;;;;5049502;28;20045;-64
2024/01/16 12:59:12;;;;;;;17.70;6.47;;;;;;;;;;5049950;28;20110;-64
2024/01/16 13:01:41;;;;;;;12.27;5.37;;;;;;;;;;5049940;28;20049;-64
2024/01/16 13:04:07;;;;;;;13.03;5.03;;;;;;;;;;5049903;28;20056;-64
2024/01/16 13:06:34;;;;;;;13.70;4.97;;;;;;;;;;5050056;28;20515;-64
2024/01/16 13:09:10;;;;;;;10.50;5.30;;;;;;;;;;5049803;28;20786;-65
2024/01/16 13:12:05;;;;;;;15.30;4.43;;;;;;;;;;5049559;28;20094;-64
2024/01/16 13:14:31;;;;;;;12.10;3.70;;;;;;;;;;5044974;28;20411;-64
2024/01/16 13:16:57;;;;;;;11.37;3.53;;;;;;;;;;5049583;28;20049;-64
2024/01/16 13:19:23;;;;;;;8.00;3.17;;;;;;;;;;5049398;28;20044;-64
2024/01/16 13:21:50;;;;;;;9.63;3.63;;;;;;;;;;5049462;28;20053;-64
2024/01/16 13:24:17;;;;;;;10.07;2.77;;;;;;;;;;5049864;28;20053;-64
2024/01/16 13:26:43;;;;;;;9.77;2.57;;;;;;;;;;5048835;28;20146;-64
2024/01/16 13:29:09;;;;;;;8.93;2.70;;;;;;;;;;5049260;28;20053;-64
2024/01/16 13:31:35;;;;;;;13.13;2.23;;;;;;;;;;5049449;28;20052;-64
2024/01/16 13:34:01;;;;;;;7.27;2.00;;;;;;;;;;5049141;28;20041;-64
2024/01/16 13:36:27;;;;;;;7.67;2.23;;;;;;;;;;5048358;28;20045;-64
2024/01/16 13:38:54;;;;;;;4.97;2.40;;;;;;;;;;5049194;28;20047;-64
2024/01/16 13:41:21;;;;;;;7.93;2.47;;;;;;;;;;5049582;28;20133;-64
2024/01/16 13:43:49;;;;;;;7.63;2.77;;;;;;;;;;5048662;28;20442;-64
2024/01/16 13:46:17;;;;;;;9.60;2.30;;;;;;;;;;5047626;28;20049;-65
2024/01/16 13:48:43;;;;;;;7.93;2.63;;;;;;;;;;5048852;28;20056;-64
2024/01/16 13:51:10;;;;;;;6.50;1.83;;;;;;;;;;5048552;28;20070;-64
2024/01/16 13:53:36;;;;;;;9.53;2.57;;;;;;;;;;5047809;28;20080;-64
2024/01/16 13:56:02;;;;;;;10.10;2.10;;;;;;;;;;5049011;28;20087;-64
2024/01/16 13:58:28;;;;;;;8.63;1.97;;;;;;;;;;5048703;28;20497;-64
2024/01/16 14:00:54;;;;;;;10.23;2.00;;;;;;;;;;5048410;28;20103;-64
2024/01/16 14:03:20;;;;;;;4.83;2.50;;;;;;;;;;5049133;28;20077;-64
2024/01/16 14:05:47;;;;;;;6.07;1.80;;;;;;;;;;5048943;28;20090;-64
2024/01/16 14:08:13;;;;;;;9.37;1.97;;;;;;;;;;5048769;28;20495;-64
2024/01/16 14:10:39;;;;;;;6.53;1.63;;;;;;;;;;5048732;28;20049;-64
2024/01/16 14:13:06;;;;;;;6.57;1.63;;;;;;;;;;5048548;28;20103;-64
2024/01/16 14:15:32;;;;;;;9.47;1.40;;;;;;;;;;5048230;28;20049;-64
2024/01/16 14:17:59;;;;;;;6.63;1.63;;;;;;;;;;5048661;28;20044;-64
2024/01/16 14:20:26;;;;;;;8.20;1.77;;;;;;;;;;5048581;28;20179;-64
2024/01/16 14:22:53;;;;;;;5.63;1.60;;;;;;;;;;5043355;28;20045;-64
2024/01/16 14:25:19;;;;;;;8.30;1.97;;;;;;;;;;5046478;28;20422;-64
2024/01/16 14:27:46;;;;;;;6.43;2.33;;;;;;;;;;5048079;28;20091;-64
2024/01/16 14:30:14;;;;;;;6.67;1.83;;;;;;;;;;5048888;28;20036;-63
2024/01/16 14:32:41;;;;;;;9.57;1.90;;;;;;;;;;5048331;28;20122;-64